createdAt,value
2022-09-09T00:03:17.183Z,1.4
2022-09-09T00:08:17.084Z,1.6
2022-09-09T00:13:17.104Z,1.8
2022-09-09T00:18:17.095Z,1.5
2022-09-09T00:23:17.090Z,1.7
2022-09-09T00:28:17.091Z,1.8
2022-09-09T00:33:17.093Z,1.7
2022-09-09T00:38:17.096Z,1.8
2022-09-09T00:43:17.097Z,1.8
2022-09-09T00:48:17.109Z,1.6
2022-09-09T00:53:17.107Z,1.7
2022-09-09T00:58:17.104Z,1.9
2022-09-09T01:18:17.118Z,2.0
2022-09-09T01:23:17.126Z,1.9
2022-09-09T01:28:17.121Z,1.8
2022-09-09T01:33:17.123Z,1.9
2022-09-09T01:38:17.127Z,1.9
2022-09-09T01:43:17.141Z,1.9
2022-09-09T01:48:17.132Z,1.8
2022-09-09T01:53:17.137Z,1.8
2022-09-09T01:58:17.134Z,2.3
2022-09-09T02:03:17.149Z,2.3
2022-09-09T02:08:17.145Z,1.9
2022-09-09T02:13:17.150Z,2.0
2022-09-09T02:18:17.145Z,2.0
2022-09-09T02:23:17.227Z,2.0
2022-09-09T02:28:17.153Z,2.1
2022-09-09T02:33:17.159Z,2.0
2022-09-09T02:38:17.166Z,2.2
2022-09-09T02:43:17.160Z,2.3
2022-09-09T02:48:17.164Z,2.3
2022-09-09T02:53:17.165Z,2.5
2022-09-09T02:58:17.168Z,2.4
2022-09-09T03:03:17.181Z,2.4
2022-09-09T03:08:17.180Z,2.4
2022-09-09T03:13:17.178Z,2.4
2022-09-09T03:18:17.182Z,2.2
2022-09-09T03:23:17.192Z,2.3
2022-09-09T03:28:17.192Z,2.0
2022-09-09T03:33:17.213Z,2.3
2022-09-09T03:38:17.195Z,2.1
2022-09-09T03:43:17.193Z,2.2
2022-09-09T03:48:17.206Z,2.2
2022-09-09T03:53:17.199Z,2.4
2022-09-09T03:58:17.211Z,2.6
2022-09-09T04:03:17.212Z,2.1
2022-09-09T04:08:17.219Z,2.6
2022-09-09T04:13:17.219Z,2.2
2022-09-09T04:18:20.179Z,2.6
2022-09-09T04:23:17.217Z,2.5
2022-09-09T04:28:17.219Z,2.4
2022-09-09T04:33:17.227Z,2.6
2022-09-09T04:38:17.229Z,2.4
2022-09-09T04:43:17.235Z,2.6
2022-09-09T04:48:17.238Z,2.4
2022-09-09T04:53:17.238Z,2.4
2022-09-09T04:58:17.241Z,2.3
2022-09-09T05:03:17.255Z,2.5
2022-09-09T05:08:17.252Z,2.4
2022-09-09T05:13:17.266Z,2.5
2022-09-09T05:18:17.255Z,2.8
2022-09-09T05:23:17.260Z,2.1
2022-09-09T05:28:17.268Z,2.4
2022-09-09T05:33:17.266Z,2.1
2022-09-09T05:38:17.267Z,2.2
2022-09-09T05:43:17.271Z,2.2
2022-09-09T05:48:17.274Z,2.6
2022-09-09T05:53:17.286Z,2.2
2022-09-09T05:58:17.282Z,2.2
2022-09-09T06:03:17.368Z,2.0
2022-09-09T06:08:17.306Z,2.0
2022-09-09T06:13:17.297Z,2.1
2022-09-09T06:18:17.295Z,2.2
2022-09-09T06:23:17.298Z,1.7
2022-09-09T06:28:17.301Z,2.2
2022-09-09T06:33:17.311Z,2.1
2022-09-09T06:38:17.307Z,2.3
2022-09-09T06:43:17.315Z,2.4
2022-09-09T06:48:17.325Z,2.3
2022-09-09T06:53:17.319Z,1.8
2022-09-09T06:58:17.321Z,2.2
2022-09-09T07:03:17.323Z,1.9
2022-09-09T07:08:17.334Z,2.3
2022-09-09T07:13:17.355Z,2.3
2022-09-09T07:18:17.336Z,2.2
2022-09-09T07:23:17.342Z,2.4
2022-09-09T07:28:17.353Z,2.7
2022-09-09T07:33:17.349Z,2.2
2022-09-09T07:38:17.353Z,2.1
2022-09-09T07:43:17.554Z,2.2
2022-09-09T07:48:17.357Z,2.1
2022-09-09T07:53:17.366Z,2.2
2022-09-09T07:58:17.372Z,2.2
2022-09-09T08:03:17.461Z,2.1
2022-09-09T08:08:17.373Z,2.0
2022-09-09T08:13:18.627Z,1.6
2022-09-09T08:18:17.379Z,1.4
2022-09-09T08:23:17.379Z,1.7
2022-09-09T08:28:17.386Z,1.8
2022-09-09T08:33:17.384Z,2.3
2022-09-09T08:38:17.389Z,1.7
2022-09-09T08:43:17.392Z,1.8
2022-09-09T08:48:17.396Z,1.9
2022-09-09T08:53:17.397Z,1.7
2022-09-09T08:58:17.401Z,1.7
2022-09-09T09:03:17.428Z,1.3
2022-09-09T09:08:17.410Z,1.3
2022-09-09T09:13:17.415Z,1.4
2022-09-09T09:18:17.417Z,1.3
2022-09-09T09:23:17.417Z,1.4
2022-09-09T09:28:17.432Z,1.3
2022-09-09T09:33:17.425Z,1.2
2022-09-09T09:43:17.427Z,1.4
2022-09-09T09:48:17.433Z,1.3
2022-09-09T09:53:17.442Z,1.2
2022-09-09T09:58:18.643Z,1.6
2022-09-09T10:03:17.447Z,1.3
2022-09-09T10:08:17.448Z,1.2
2022-09-09T10:13:17.473Z,1.6
2022-09-09T10:18:17.452Z,1.5
2022-09-09T10:23:17.481Z,1.7
2022-09-09T10:28:17.463Z,1.5
2022-09-09T10:33:17.465Z,1.3
2022-09-09T10:38:17.466Z,1.3
2022-09-09T10:43:17.468Z,1.3
2022-09-09T10:48:17.479Z,1.1
2022-09-09T10:53:17.474Z,1.2
2022-09-09T10:58:17.475Z,1.1
2022-09-09T11:03:17.482Z,1.3
2022-09-09T11:08:17.543Z,1.4
2022-09-09T11:13:17.481Z,1.2
2022-09-09T11:18:17.481Z,1.4
2022-09-09T11:23:17.499Z,1.5
2022-09-09T11:28:17.480Z,1.3
2022-09-09T11:33:17.488Z,1.7
2022-09-09T11:38:17.488Z,1.7
2022-09-09T11:43:17.489Z,1.9
2022-09-09T11:48:17.500Z,1.6
2022-09-09T11:53:17.496Z,1.7
2022-09-09T11:58:17.502Z,1.6
2022-09-09T12:03:17.502Z,1.3
2022-09-09T12:08:17.508Z,1.5
2022-09-09T12:13:17.515Z,1.2
2022-09-09T12:18:17.524Z,1.0
2022-09-09T12:23:17.523Z,1.3
2022-09-09T12:28:17.523Z,1.2
2022-09-09T12:33:17.541Z,1.5
2022-09-09T12:38:17.531Z,1.6
2022-09-09T12:43:17.529Z,1.6
2022-09-09T12:48:17.535Z,2.1
2022-09-09T12:53:17.540Z,1.9
2022-09-09T12:58:17.550Z,1.7
2022-09-09T13:03:17.552Z,1.5
2022-09-09T13:08:17.554Z,1.3
2022-09-09T13:13:17.562Z,1.6
2022-09-09T13:18:17.562Z,1.7
2022-09-09T13:23:17.561Z,1.5
2022-09-09T13:28:17.557Z,1.6
2022-09-09T13:33:17.563Z,1.7
2022-09-09T13:38:17.574Z,1.4
2022-09-09T13:43:17.571Z,1.7
2022-09-09T13:48:17.574Z,1.8
2022-09-09T13:53:17.573Z,1.9
2022-09-09T13:58:17.577Z,1.8
2022-09-09T14:03:17.576Z,1.9
2022-09-09T14:08:17.580Z,1.9
2022-09-09T14:13:17.584Z,2.0
2022-09-09T14:18:17.611Z,2.2
2022-09-09T14:23:17.600Z,2.3
2022-09-09T14:28:20.550Z,1.0
2022-09-09T14:33:17.604Z,1.1
2022-09-09T14:38:19.198Z,1.0
2022-09-09T14:43:17.610Z,1.0
2022-09-09T14:48:17.620Z,1.2
2022-09-09T14:53:17.625Z,1.3
2022-09-09T14:58:17.616Z,1.4
2022-09-09T15:03:17.638Z,1.2
2022-09-09T15:08:17.634Z,1.3
2022-09-09T15:13:17.629Z,1.3
2022-09-09T15:18:17.642Z,1.3
2022-09-09T15:23:17.642Z,1.1
2022-09-09T15:28:17.636Z,1.1
2022-09-09T15:33:17.638Z,1.1
2022-09-09T15:38:17.647Z,1.1
2022-09-09T15:43:17.647Z,1.0
2022-09-09T15:48:17.647Z,1.2
2022-09-09T15:53:17.657Z,1.2
2022-09-09T15:58:17.668Z,1.0
2022-09-09T16:03:17.655Z,0.7
2022-09-09T16:08:17.650Z,0.5
2022-09-09T16:13:17.652Z,0.5
2022-09-09T16:18:17.656Z,0.6
2022-09-09T16:23:17.657Z,0.7
2022-09-09T16:28:17.659Z,0.7
2022-09-09T16:33:17.657Z,0.5
2022-09-09T16:38:17.662Z,0.8
2022-09-09T16:43:17.665Z,0.7
2022-09-09T16:48:17.663Z,0.8
2022-09-09T16:53:17.674Z,0.7
2022-09-09T16:58:17.668Z,0.9
2022-09-09T17:03:17.669Z,0.7
2022-09-09T17:08:17.673Z,0.8
2022-09-09T17:13:17.675Z,1.0
2022-09-09T17:18:17.679Z,1.2
2022-09-09T17:23:17.680Z,1.3
2022-09-09T17:28:17.690Z,1.4
2022-09-09T17:33:17.695Z,1.5
2022-09-09T17:38:17.692Z,1.6
2022-09-09T17:43:17.701Z,1.5
2022-09-09T17:48:17.700Z,1.5
2022-09-09T17:53:17.701Z,1.3
2022-09-09T17:58:17.704Z,1.2
2022-09-09T18:03:17.895Z,1.4
2022-09-09T18:08:17.713Z,1.3
2022-09-09T18:13:17.725Z,1.3
2022-09-09T18:18:17.722Z,1.0
2022-09-09T18:23:17.723Z,1.2
2022-09-09T18:28:19.419Z,1.1
2022-09-09T18:33:17.721Z,1.0
2022-09-09T18:38:17.723Z,0.9
2022-09-09T18:43:17.737Z,1.1
2022-09-09T18:48:17.729Z,1.1
2022-09-09T18:53:17.748Z,1.3
2022-09-09T18:58:17.736Z,1.5
2022-09-09T19:03:17.743Z,1.3
2022-09-09T19:08:17.743Z,1.6
2022-09-09T19:13:17.744Z,1.6
2022-09-09T19:18:17.751Z,1.5
2022-09-09T19:23:17.744Z,1.8
2022-09-09T19:28:17.747Z,1.9
2022-09-09T19:33:17.752Z,1.9
2022-09-09T19:38:17.753Z,1.6
2022-09-09T19:43:17.756Z,2.1
2022-09-09T19:48:17.757Z,1.9
2022-09-09T19:53:17.764Z,2.3
2022-09-09T19:58:17.762Z,2.0
2022-09-09T20:03:19.065Z,2.2
2022-09-09T20:08:17.766Z,2.3
2022-09-09T20:13:17.805Z,2.4
2022-09-09T20:18:17.775Z,2.4
2022-09-09T20:23:17.793Z,2.3
2022-09-09T20:28:17.776Z,2.4
2022-09-09T20:33:17.785Z,2.4
2022-09-09T20:38:17.782Z,2.3
2022-09-09T20:43:17.788Z,2.4
2022-09-09T20:48:17.790Z,2.3
2022-09-09T20:53:17.791Z,2.3
2022-09-09T20:58:17.795Z,2.4
2022-09-09T21:03:17.804Z,2.3
2022-09-09T21:08:17.798Z,2.2
2022-09-09T21:13:17.803Z,2.3
2022-09-09T21:18:17.810Z,2.6
2022-09-09T21:23:17.811Z,2.6
2022-09-09T21:28:17.813Z,2.5
2022-09-09T21:33:17.818Z,3.1
2022-09-09T21:38:17.816Z,2.7
2022-09-09T21:43:17.823Z,2.8
2022-09-09T21:48:17.830Z,2.8
2022-09-09T21:53:17.831Z,3.2
2022-09-09T21:58:17.831Z,2.7
2022-09-09T22:08:17.842Z,2.4
2022-09-09T22:13:17.841Z,2.7
2022-09-09T22:18:17.847Z,2.2
2022-09-09T22:23:17.853Z,2.3
2022-09-09T22:28:17.851Z,2.4
2022-09-09T22:33:17.868Z,2.2
2022-09-09T22:38:17.856Z,2.1
2022-09-09T22:43:17.856Z,2.3
2022-09-09T22:48:17.858Z,2.4
2022-09-09T22:53:17.860Z,2.4
2022-09-09T22:58:17.862Z,2.0
2022-09-09T23:03:17.864Z,2.2
2022-09-09T23:08:17.862Z,2.2
2022-09-09T23:13:17.872Z,2.3
2022-09-09T23:18:17.871Z,2.3
2022-09-09T23:23:17.878Z,2.5
2022-09-09T23:28:17.877Z,2.7
2022-09-09T23:33:17.881Z,2.5
2022-09-09T23:38:17.884Z,3.0
2022-09-09T23:43:17.880Z,2.6
2022-09-09T23:48:17.892Z,2.5
2022-09-09T23:53:17.896Z,2.3
2022-09-09T23:58:17.900Z,2.3
